Time;durP1;ratioP1;P1;durP2;ratioP2;P2;SDS_P1;SDS_P2;PMS_P1;PMS_P2;Temp;Humidity;BMP_temperature;BMP_pressure;BME280_temperature;BME280_humidity;BME280_pressure;Samples;Min_cycle;Max_cycle;Signal;HPM_P1;HPM_P2
2022/11/09 00:01:38;;;;;;;23.35;14.05;;;;;;;9.64;86.83;100867.58;1664756;86;20976;-91
2022/11/09 00:04:05;;;;;;;22.30;14.28;;;;;;;9.62;86.79;100863.13;1661216;84;21494;-91
2022/11/09 00:06:37;;;;;;;27.73;15.25;;;;;;;9.59;86.72;100861.31;1698663;84;21870;-92
2022/11/09 00:09:06;;;;;;;20.55;14.18;;;;;;;9.57;86.72;100867.34;1687081;84;21074;-91
2022/11/09 00:11:34;;;;;;;22.13;14.13;;;;;;;9.54;86.67;100870.34;1663094;85;21003;-91
2022/11/09 00:14:14;;;;;;;24.87;15.45;;;;;;;9.53;86.69;100862.02;1661665;86;21868;-91
2022/11/09 00:16:41;;;;;;;27.42;14.18;;;;;;;9.52;86.66;100867.22;1673917;84;21613;-91
2022/11/09 00:19:09;;;;;;;22.40;14.68;;;;;;;9.48;86.63;100862.28;1661990;86;21733;-92
2022/11/09 00:21:35;;;;;;;27.77;15.43;;;;;;;9.48;86.66;100860.09;1663806;84;21436;-90
2022/11/09 00:24:05;;;;;;;26.20;14.95;;;;;;;9.45;86.62;100860.86;1670854;84;21078;-91
2022/11/09 00:26:31;;;;;;;24.12;14.40;;;;;;;9.45;86.58;100866.55;1676757;83;21543;-90
2022/11/09 00:28:58;;;;;;;23.25;15.18;;;;;;;9.43;86.57;100864.30;1671890;83;21043;-90
2022/11/09 00:31:27;;;;;;;24.12;14.87;;;;;;;9.41;86.49;100860.30;1661617;86;21975;-91
2022/11/09 00:33:55;;;;;;;24.55;14.38;;;;;;;9.39;86.45;100859.80;1690505;84;20979;-91
2022/11/09 00:36:26;;;;;;;23.77;14.53;;;;;;;9.37;86.45;100854.92;1679581;83;20999;-91
2022/11/09 00:38:58;;;;;;;22.58;14.33;;;;;;;9.33;86.33;100847.36;1709430;83;21081;-91
2022/11/09 00:41:26;;;;;;;23.95;15.80;;;;;;;9.28;86.26;100845.00;1662240;85;21493;-91
2022/11/09 00:43:53;;;;;;;23.73;14.87;;;;;;;9.25;86.31;100858.94;1702626;83;22086;-91
2022/11/09 00:46:21;;;;;;;24.85;15.23;;;;;;;9.24;86.30;100856.26;1710967;83;21781;-91
2022/11/09 00:48:54;;;;;;;23.57;15.43;;;;;;;9.23;86.39;100861.91;1697733;83;20991;-90
2022/11/09 00:51:28;;;;;;;;;;;;;;;9.23;86.42;100854.03;1719417;83;20986;-90
2022/11/09 00:54:07;;;;;;;21.48;14.03;;;;;;;9.24;86.51;100856.26;1692421;83;20151;-90
2022/11/09 00:56:40;;;;;;;25.90;14.80;;;;;;;9.24;86.47;100848.38;1697462;83;21831;-90
2022/11/09 00:59:14;;;;;;;19.97;14.30;;;;;;;9.23;86.50;100850.52;1716550;83;20974;-91
2022/11/09 01:01:41;;;;;;;24.05;15.23;;;;;;;9.22;86.51;100841.76;1707046;83;21027;-90
2022/11/09 01:04:09;;;;;;;24.18;14.87;;;;;;;9.23;86.59;100844.84;1699482;83;21045;-91
2022/11/09 01:06:36;;;;;;;21.87;14.28;;;;;;;9.26;86.63;100847.58;1713112;83;21427;-91
2022/11/09 01:09:05;;;;;;;20.62;14.85;;;;;;;9.30;86.69;100843.31;1709986;83;21754;-91
2022/11/09 01:11:35;;;;;;;20.40;13.95;;;;;;;9.32;86.57;100845.12;1707649;83;21454;-91
2022/11/09 01:14:01;;;;;;;23.92;16.37;;;;;;;9.32;86.57;100835.94;1710197;83;21487;-92
2022/11/09 01:16:28;;;;;;;20.70;14.28;;;;;;;9.35;86.51;100835.16;1715970;83;21525;-91
2022/11/09 01:18:58;;;;;;;28.30;15.75;;;;;;;9.35;86.46;100841.73;1707508;83;20974;-91
2022/11/09 01:21:25;;;;;;;20.15;14.38;;;;;;;9.36;86.49;100840.87;1710175;83;21764;-90
2022/11/09 01:23:52;;;;;;;22.93;15.83;;;;;;;9.37;86.44;100832.16;1676678;83;21023;-91
2022/11/09 01:26:32;;;;;;;28.10;16.48;;;;;;;9.38;86.41;100826.47;1710977;83;21470;-91
2022/11/09 01:29:00;;;;;;;25.12;16.27;;;;;;;9.39;86.34;100827.84;1696065;83;20998;-91
2022/11/09 01:31:27;;;;;;;25.08;15.43;;;;;;;9.38;86.24;100821.22;1716693;83;21535;-91
2022/11/09 01:33:55;;;;;;;25.82;15.75;;;;;;;9.36;86.26;100834.73;1707321;83;21761;-91
2022/11/09 01:36:28;;;;;;;24.43;15.75;;;;;;;9.37;86.27;100831.27;1707349;83;20990;-91
2022/11/09 01:38:57;;;;;;;26.48;15.63;;;;;;;9.35;86.28;100828.59;1671616;83;21484;-91
2022/11/09 01:41:26;;;;;;;22.80;15.68;;;;;;;9.36;86.30;100832.98;1649711;86;20980;-91
2022/11/09 01:44:11;;;;;;;22.27;13.88;;;;;;;9.38;86.25;100833.04;1658372;85;21012;-91
2022/11/09 01:47:03;;;;;;;22.77;14.43;;;;;;;9.36;86.24;100829.05;1628754;86;21806;-91
2022/11/09 01:49:54;;;;;;;21.17;13.85;;;;;;;9.34;86.16;100831.62;1655923;84;21456;-91
2022/11/09 01:52:26;;;;;;;22.20;14.00;;;;;;;9.33;86.14;100831.60;1655043;86;21023;-90
2022/11/09 01:55:10;;;;;;;24.67;14.73;;;;;;;9.32;86.18;100824.11;1653801;86;21003;-90
2022/11/09 01:58:07;;;;;;;20.30;13.90;;;;;;;9.36;86.21;100831.67;1660146;84;21124;-90
2022/11/09 02:00:47;;;;;;;28.15;14.53;;;;;;;9.36;86.18;100835.61;1623991;88;21793;-90
2022/11/09 02:03:29;;;;;;;22.93;14.38;;;;;;;9.36;86.18;100831.67;1600565;88;21076;-91
2022/11/09 02:05:59;;;;;;;21.52;14.30;;;;;;;9.38;86.22;100836.98;1624681;88;21004;-91
2022/11/09 02:08:44;;;;;;;21.45;13.75;;;;;;;9.40;86.21;100829.61;1620665;88;21068;-90
2022/11/09 02:11:13;;;;;;;21.12;14.28;;;;;;;9.42;86.18;100831.89;1619844;88;21039;-91
2022/11/09 02:13:43;;;;;;;22.60;14.95;;;;;;;9.43;86.14;100827.52;1613085;88;21752;-90
2022/11/09 02:16:11;;;;;;;24.57;15.35;;;;;;;9.44;86.14;100831.52;1614529;88;21039;-91
2022/11/09 02:18:53;;;;;;;23.15;14.40;;;;;;;9.44;86.09;100826.66;1621987;88;21047;-90
2022/11/09 02:21:23;;;;;;;22.58;14.75;;;;;;;9.45;86.07;100824.08;1622070;88;21046;-90
2022/11/09 02:23:50;;;;;;;26.23;15.15;;;;;;;9.47;86.10;100820.19;1593818;88;21608;-90
2022/11/09 02:26:33;;;;;;;25.23;15.13;;;;;;;9.48;86.06;100832.07;1612506;88;21748;-90
2022/11/09 02:29:04;;;;;;;22.50;14.63;;;;;;;9.52;86.15;100828.69;1621397;88;21046;-90
2022/11/09 02:31:42;;;;;;;22.95;14.45;;;;;;;9.55;86.00;100829.19;1638142;86;21743;-91
2022/11/09 02:34:16;;;;;;;27.90;14.43;;;;;;;9.54;85.93;100825.67;1663257;84;20953;-91
2022/11/09 02:37:05;;;;;;;24.85;14.98;;;;;;;9.55;85.90;100826.56;1659571;85;21015;-92
2022/11/09 02:39:33;;;;;;;19.07;13.68;;;;;;;9.57;85.91;100822.67;1698590;84;21812;-91
2022/11/09 02:42:06;;;;;;;31.75;15.18;;;;;;;9.59;85.82;100836.74;1660259;85;21007;-90
2022/11/09 02:44:36;;;;;;;23.80;14.40;;;;;;;9.58;85.80;100831.92;1680251;84;21039;-91
2022/11/09 02:47:09;;;;;;;24.10;14.40;;;;;;;9.58;85.76;100834.55;1679399;83;20996;-91
2022/11/09 02:49:44;;;;;;;20.37;14.33;;;;;;;9.57;85.70;100821.35;1627803;86;21518;-91
2022/11/09 02:52:25;;;;;;;24.67;15.00;;;;;;;9.58;85.69;100820.09;1612922;89;21808;-90
2022/11/09 02:54:59;;;;;;;25.23;15.88;;;;;;;9.59;85.69;100818.34;1605894;89;21025;-90
2022/11/09 02:57:31;;;;;;;23.98;15.28;;;;;;;9.60;85.66;100816.20;1628108;86;21008;-90
2022/11/09 02:59:59;;;;;;;25.12;15.72;;;;;;;9.59;85.59;100811.78;1609288;86;21042;-90
2022/11/09 03:02:35;;;;;;;28.77;16.45;;;;;;;9.57;85.55;100807.78;1621250;86;21021;-91
2022/11/09 03:05:16;;;;;;;25.32;15.40;;;;;;;9.57;85.53;100809.53;1621765;86;21759;-91
2022/11/09 03:07:45;;;;;;;26.35;15.60;;;;;;;9.56;85.54;100808.64;1609221;87;21032;-92
2022/11/09 03:10:14;;;;;;;27.25;16.48;;;;;;;9.58;85.58;100824.47;1620780;86;21595;-92
2022/11/09 03:12:41;;;;;;;26.48;16.07;;;;;;;9.59;85.51;100826.23;1615090;87;21045;-92
2022/11/09 03:15:09;;;;;;;22.85;15.28;;;;;;;9.58;85.46;100832.35;1608133;87;21020;-92
2022/11/09 03:17:37;;;;;;;25.88;14.47;;;;;;;9.56;85.42;100832.73;1621144;86;22578;-93
2022/11/09 03:20:06;;;;;;;25.62;15.45;;;;;;;9.56;85.45;100830.10;1616947;86;21013;-92
2022/11/09 03:22:32;;;;;;;24.02;15.18;;;;;;;9.55;85.44;100833.13;1604728;89;21886;-91
2022/11/09 03:25:00;;;;;;;28.65;15.72;;;;;;;9.55;85.46;100826.56;1631396;86;21479;-91
2022/11/09 03:27:28;;;;;;;24.72;15.95;;;;;;;9.56;85.47;100819.59;1633888;87;20977;-91
2022/11/09 03:29:57;;;;;;;25.10;15.23;;;;;;;9.54;85.38;100816.48;1613286;87;21770;-91
2022/11/09 03:32:25;;;;;;;22.93;15.25;;;;;;;9.53;85.33;100812.48;1602170;87;21430;-92
2022/11/09 03:34:51;;;;;;;24.82;14.43;;;;;;;9.52;85.35;100812.03;1610950;87;21005;-91
2022/11/09 03:37:18;;;;;;;25.02;15.78;;;;;;;9.49;85.24;100822.44;1630120;86;21835;-91
2022/11/09 03:39:46;;;;;;;23.50;15.15;;;;;;;9.45;85.26;100812.25;1668652;85;21036;-92
2022/11/09 03:42:15;;;;;;;26.35;15.53;;;;;;;9.44;85.32;100806.55;1636296;85;21815;-91
2022/11/09 03:45:01;;;;;;;29.48;16.02;;;;;;;9.44;85.33;100807.86;1643467;86;21039;-92
2022/11/09 03:47:29;;;;;;;26.25;15.83;;;;;;;9.44;85.30;100804.32;1627575;87;21030;-91
2022/11/09 03:49:56;;;;;;;26.25;17.50;;;;;;;9.43;85.37;100806.06;1711701;83;21018;-92
2022/11/09 03:52:23;;;;;;;29.27;17.80;;;;;;;9.44;85.38;100799.06;1718875;82;20994;-91
2022/11/09 03:54:57;;;;;;;26.77;16.35;;;;;;;9.43;85.34;100799.50;1703492;81;22549;-92
2022/11/09 03:57:25;;;;;;;21.93;13.90;;;;;;;9.44;85.37;100798.67;1681784;83;21806;-91
2022/11/09 03:59:51;;;;;;;20.75;14.30;;;;;;;9.43;85.28;100799.93;1703166;83;20995;-92
2022/11/09 04:02:19;;;;;;;21.00;14.80;;;;;;;9.43;85.35;100794.67;1719400;83;21499;-90
2022/11/09 04:04:48;;;;;;;23.67;14.73;;;;;;;9.41;85.28;100790.68;1723283;83;21446;-91
2022/11/09 04:07:15;;;;;;;22.35;14.45;;;;;;;9.38;85.15;100789.69;1716468;83;21766;-91
2022/11/09 04:09:43;;;;;;;24.18;14.15;;;;;;;9.33;85.20;100791.77;1724538;82;21482;-91
2022/11/09 04:12:10;;;;;;;20.30;14.47;;;;;;;9.31;85.20;100792.14;1714556;82;21002;-91
2022/11/09 04:14:38;;;;;;;29.25;16.37;;;;;;;9.30;85.24;100782.89;1719779;81;20962;-90
2022/11/09 04:17:06;;;;;;;24.67;15.80;;;;;;;9.27;85.15;100772.28;1706579;82;21562;-90
2022/11/09 04:19:33;;;;;;;25.72;15.15;;;;;;;9.22;85.13;100783.98;1708129;83;21765;-91
2022/11/09 04:22:01;;;;;;;23.18;16.07;;;;;;;9.21;85.23;100780.86;1699378;83;21425;-90
2022/11/09 04:24:30;;;;;;;24.87;15.60;;;;;;;9.20;85.23;100776.48;1718572;83;21435;-91
2022/11/09 04:26:56;;;;;;;25.32;16.57;;;;;;;9.20;85.25;100774.28;1701326;83;20978;-90
2022/11/09 04:29:24;;;;;;;27.90;16.32;;;;;;;9.19;85.25;100773.80;1697131;83;21022;-91
2022/11/09 04:31:57;;;;;;;26.80;16.20;;;;;;;9.18;85.31;100774.23;1724288;81;21756;-92
2022/11/09 04:34:37;;;;;;;24.70;16.85;;;;;;;9.19;85.30;100775.11;1718817;81;20978;-91
2022/11/09 04:37:04;;;;;;;22.02;16.75;;;;;;;9.20;85.37;100780.84;1719884;81;20986;-91
2022/11/09 04:39:37;;;;;;;24.47;17.02;;;;;;;9.24;85.34;100781.41;1673099;83;21056;-89
2022/11/09 04:42:04;;;;;;;25.08;17.07;;;;;;;9.22;85.24;100790.55;1653095;86;21500;-89
2022/11/09 04:44:33;;;;;;;25.23;17.50;;;;;;;9.20;85.24;100794.86;1625145;87;21792;-90
2022/11/09 04:47:00;;;;;;;28.23;17.10;;;;;;;9.19;85.22;100795.69;1625273;86;21025;-90
2022/11/09 04:49:27;;;;;;;23.10;16.45;;;;;;;9.18;85.29;100784.73;1651806;84;20982;-90
2022/11/09 04:51:55;;;;;;;28.52;17.65;;;;;;;9.22;85.33;100797.54;1666552;83;21050;-90
2022/11/09 04:54:27;;;;;;;25.23;16.97;;;;;;;9.24;85.37;100780.09;1656819;84;21051;-86
2022/11/09 04:56:54;;;;;;;23.70;16.80;;;;;;;9.25;85.32;100773.58;1665978;84;22572;-86
2022/11/09 04:59:21;;;;;;;23.85;17.00;;;;;;;9.26;85.25;100778.41;1663740;83;21565;-88
2022/11/09 05:01:48;;;;;;;27.58;17.57;;;;;;;9.26;85.26;100775.34;1667589;84;20990;-89
2022/11/09 05:04:14;;;;;;;26.10;16.82;;;;;;;9.27;85.19;100772.28;1661808;84;20996;-89
2022/11/09 05:06:42;;;;;;;28.23;18.75;;;;;;;9.26;85.12;100770.09;1663926;84;21039;-89
2022/11/09 05:09:09;;;;;;;25.17;17.60;;;;;;;9.24;85.13;100771.78;1658599;84;21856;-89
2022/11/09 05:11:36;;;;;;;26.05;17.37;;;;;;;9.23;85.09;100774.35;1655273;85;20983;-89
2022/11/09 05:14:03;;;;;;;24.20;17.30;;;;;;;9.21;84.97;100786.55;1665138;84;21032;-88
2022/11/09 05:16:30;;;;;;;26.23;17.55;;;;;;;9.14;84.96;100785.45;1683026;84;21094;-89
2022/11/09 05:18:58;;;;;;;25.10;17.25;;;;;;;9.11;84.95;100789.31;1673230;83;21436;-88
2022/11/09 05:21:25;;;;;;;32.85;17.82;;;;;;;9.07;84.98;100785.70;1673473;84;21783;-92
2022/11/09 05:23:59;;;;;;;26.02;17.35;;;;;;;9.02;84.97;100791.22;1649192;85;21011;-91
2022/11/09 05:26:38;;;;;;;24.00;18.05;;;;;;;8.97;84.96;100784.92;1656422;84;20991;-94
2022/11/09 05:29:07;;;;;;;25.00;18.12;;;;;;;8.93;85.05;100781.73;1658954;84;21155;-88
2022/11/09 05:31:46;;;;;;;25.30;18.45;;;;;;;8.92;85.11;100779.97;1658633;85;21583;-89
2022/11/09 05:34:13;;;;;;;23.83;17.55;;;;;;;8.88;85.07;100776.78;1654106;84;21712;-89
2022/11/09 05:36:40;;;;;;;30.60;19.60;;;;;;;8.83;85.14;100784.48;1661751;84;21032;-88
2022/11/09 05:39:07;;;;;;;25.27;18.98;;;;;;;8.80;85.19;100785.69;1679985;83;20975;-88
2022/11/09 05:41:34;;;;;;;23.83;19.12;;;;;;;8.79;85.21;100789.60;1724037;81;21639;-92
2022/11/09 05:44:01;;;;;;;30.48;19.70;;;;;;;8.73;85.20;100788.55;1693335;82;21018;-91
2022/11/09 05:46:30;;;;;;;26.42;19.17;;;;;;;8.72;85.29;100793.74;1705608;83;21834;-88
2022/11/09 05:48:56;;;;;;;32.23;19.05;;;;;;;8.68;85.25;100793.17;1700144;83;20982;-86
2022/11/09 05:51:23;;;;;;;33.35;19.90;;;;;;;8.66;85.32;100792.23;1718907;81;20990;-86
2022/11/09 05:53:50;;;;;;;27.05;18.27;;;;;;;8.63;85.32;100786.45;1713633;83;21056;-85
2022/11/09 05:56:18;;;;;;;27.70;18.73;;;;;;;8.60;85.33;100788.11;1710317;83;21411;-86
2022/11/09 05:58:45;;;;;;;31.02;20.32;;;;;;;8.56;85.39;100781.86;1698237;83;21755;-87
2022/11/09 06:01:17;;;;;;;30.00;20.00;;;;;;;8.57;85.47;100788.88;1713937;83;21378;-90
2022/11/09 06:03:44;;;;;;;28.63;19.77;;;;;;;8.59;85.59;100783.25;1684675;83;20986;-86
2022/11/09 06:06:14;;;;;;;32.17;19.50;;;;;;;8.63;85.71;100785.13;1698904;83;21127;-90
2022/11/09 06:08:41;;;;;;;29.98;20.00;;;;;;;8.68;85.77;100779.63;1715456;83;21006;-90
2022/11/09 06:11:09;;;;;;;30.30;19.75;;;;;;;8.73;85.83;100780.68;1716142;83;21756;-90
2022/11/09 06:13:36;;;;;;;30.10;20.85;;;;;;;8.79;85.87;100777.36;1710269;83;20975;-89
2022/11/09 06:16:04;;;;;;;29.37;19.67;;;;;;;8.83;85.84;100776.61;1694369;83;20996;-89
2022/11/09 06:18:31;;;;;;;31.33;19.90;;;;;;;8.87;85.81;100777.17;1663749;85;21152;-92
2022/11/09 06:21:00;;;;;;;32.13;21.05;;;;;;;8.94;85.90;100778.28;1700235;83;21577;-90
2022/11/09 06:23:28;;;;;;;31.90;20.20;;;;;;;9.02;85.93;100791.65;1687281;83;21804;-91
2022/11/09 06:26:06;;;;;;;38.42;22.45;;;;;;;9.02;85.68;100789.02;1688412;83;20949;-89
2022/11/09 06:28:33;;;;;;;30.60;23.60;;;;;;;9.03;85.55;100789.48;1719638;83;20990;-90
2022/11/09 06:31:01;;;;;;;33.08;22.40;;;;;;;9.03;85.41;100789.48;1711094;83;21043;-90
2022/11/09 06:33:30;;;;;;;29.15;21.68;;;;;;;9.03;85.34;100782.52;1696108;83;20967;-90
2022/11/09 06:35:57;;;;;;;30.27;20.17;;;;;;;9.02;85.23;100780.72;1710736;83;22521;-91
2022/11/09 06:38:27;;;;;;;32.83;21.95;;;;;;;9.01;85.25;100788.14;1697689;83;21358;-90
2022/11/09 06:40:56;;;;;;;30.32;21.77;;;;;;;9.01;85.20;100786.83;1697035;82;21014;-91
2022/11/09 06:43:23;;;;;;;31.12;20.72;;;;;;;8.99;85.18;100798.10;1703429;83;21490;-90
2022/11/09 06:45:50;;;;;;;28.57;21.12;;;;;;;8.96;85.06;100797.59;1714558;83;21051;-90
2022/11/09 06:48:17;;;;;;;30.57;21.80;;;;;;;8.95;85.13;100799.73;1700936;83;22559;-89
2022/11/09 06:50:44;;;;;;;30.43;21.85;;;;;;;8.98;85.18;100795.91;1713320;81;20995;-89
2022/11/09 06:53:13;;;;;;;29.30;21.75;;;;;;;8.98;85.12;100798.53;1710314;83;21042;-89
2022/11/09 06:55:41;;;;;;;30.55;21.95;;;;;;;8.94;84.96;100794.91;1664794;85;21033;-89
2022/11/09 06:58:11;;;;;;;32.88;21.40;;;;;;;8.91;84.92;100797.42;1707256;83;20994;-90
2022/11/09 07:00:38;;;;;;;30.60;21.93;;;;;;;8.90;84.96;100800.03;1673892;85;21748;-88
2022/11/09 07:03:05;;;;;;;29.12;21.77;;;;;;;8.88;84.95;100805.66;1662186;84;21529;-91
2022/11/09 07:05:32;;;;;;;32.83;21.55;;;;;;;8.88;84.94;100806.53;1629597;86;21016;-87
2022/11/09 07:07:59;;;;;;;32.50;22.00;;;;;;;8.87;84.96;100800.80;1716867;81;20990;-90
2022/11/09 07:10:26;;;;;;;31.17;21.37;;;;;;;8.87;84.90;100806.05;1705216;81;20995;-89
2022/11/09 07:12:56;;;;;;;33.73;23.02;;;;;;;8.85;84.83;100801.61;1706602;82;21766;-90
2022/11/09 07:15:23;;;;;;;31.73;21.65;;;;;;;8.81;84.76;100803.66;1683857;83;20991;-90
2022/11/09 07:17:52;;;;;;;32.75;21.87;;;;;;;8.77;84.74;100798.73;1660572;85;21001;-90
2022/11/09 07:20:36;;;;;;;30.80;22.15;;;;;;;8.74;84.68;100803.87;1654056;85;21522;-90
2022/11/09 07:23:03;;;;;;;33.78;21.65;;;;;;;8.70;84.70;100808.12;1669056;83;21460;-90
2022/11/09 07:25:30;;;;;;;31.77;22.22;;;;;;;8.65;84.76;100804.47;1669143;85;21209;-90
2022/11/09 07:28:04;;;;;;;32.23;23.73;;;;;;;8.61;84.79;100809.12;1670168;84;21579;-89
2022/11/09 07:30:32;;;;;;;29.70;21.93;;;;;;;8.58;84.81;100823.86;1677660;85;21018;-90
2022/11/09 07:32:59;;;;;;;36.95;23.27;;;;;;;8.53;84.86;100821.98;1669447;85;20965;-90
2022/11/09 07:35:26;;;;;;;35.98;24.12;;;;;;;8.50;84.99;100820.98;1678990;85;21051;-90
2022/11/09 07:37:53;;;;;;;33.67;22.27;;;;;;;8.54;85.15;100822.90;1679304;85;21805;-90
2022/11/09 07:40:19;;;;;;;35.05;23.73;;;;;;;8.61;85.37;100819.61;1660202;84;21007;-90
2022/11/09 07:42:47;;;;;;;37.50;23.12;;;;;;;8.69;85.48;100810.29;1633324;87;21677;-90
2022/11/09 07:45:14;;;;;;;34.33;22.90;;;;;;;8.81;85.64;100804.55;1651964;86;21483;-90
2022/11/09 07:47:41;;;;;;;32.28;23.62;;;;;;;8.92;85.72;100800.54;1637311;87;21036;-90
2022/11/09 07:50:09;;;;;;;34.48;23.30;;;;;;;9.05;85.74;100800.52;1641655;86;21873;-90
2022/11/09 07:52:35;;;;;;;31.62;23.25;;;;;;;9.20;85.71;100807.99;1641870;86;21008;-89
2022/11/09 07:55:02;;;;;;;29.75;22.45;;;;;;;9.32;85.66;100810.10;1639450;86;21008;-90
2022/11/09 07:57:29;;;;;;;29.63;22.13;;;;;;;9.43;85.59;100793.36;1637290;86;21030;-89
2022/11/09 07:59:56;;;;;;;29.52;22.48;;;;;;;9.53;85.52;100793.69;1647611;86;21020;-89
2022/11/09 08:02:25;;;;;;;33.23;23.27;;;;;;;9.61;85.36;100797.86;1638825;86;21759;-89
2022/11/09 08:04:52;;;;;;;27.00;20.52;;;;;;;9.69;85.24;100800.28;1678440;84;20976;-89
2022/11/09 08:07:22;;;;;;;26.23;20.50;;;;;;;9.76;85.14;100797.81;1693108;83;20966;-90
2022/11/09 08:09:50;;;;;;;28.00;21.23;;;;;;;9.83;85.07;100795.84;1691581;84;21006;-89
2022/11/09 08:12:17;;;;;;;31.10;21.70;;;;;;;9.88;84.94;100793.81;1679523;84;21039;-89
2022/11/09 08:14:44;;;;;;;27.02;20.30;;;;;;;9.94;84.82;100794.41;1679345;83;21914;-89
2022/11/09 08:17:11;;;;;;;27.80;21.05;;;;;;;9.99;84.72;100793.23;1670309;84;21480;-85
2022/11/09 08:19:39;;;;;;;28.52;20.82;;;;;;;10.05;84.68;100794.72;1666298;84;21414;-85
2022/11/09 08:22:06;;;;;;;30.92;22.40;;;;;;;10.08;84.57;100795.69;1668906;84;21030;-85
2022/11/09 08:24:34;;;;;;;29.27;21.37;;;;;;;10.11;84.52;100789.18;1663790;84;21024;-85
2022/11/09 08:27:01;;;;;;;33.90;22.22;;;;;;;10.19;84.53;100782.84;1676109;84;21743;-85
2022/11/09 08:29:27;;;;;;;28.15;21.80;;;;;;;10.26;84.50;100791.77;1692510;84;20971;-85
2022/11/09 08:31:54;;;;;;;30.82;22.58;;;;;;;10.34;84.43;100797.27;1674439;84;21449;-85
2022/11/09 08:34:21;;;;;;;28.75;21.60;;;;;;;10.41;84.37;100794.84;1668343;84;21023;-86
2022/11/09 08:36:48;;;;;;;27.25;21.93;;;;;;;10.52;84.37;100793.81;1675712;84;21058;-86
2022/11/09 08:39:14;;;;;;;33.35;22.10;;;;;;;10.68;84.37;100788.53;1665319;84;21760;-85
2022/11/09 08:41:42;;;;;;;28.45;21.57;;;;;;;10.84;84.28;100785.40;1683408;83;21061;-85
2022/11/09 08:44:09;;;;;;;28.85;19.57;;;;;;;11.05;84.46;100790.28;1683544;83;21019;-86
2022/11/09 08:46:36;;;;;;;28.25;19.60;;;;;;;11.26;84.20;100785.97;1704325;83;20986;-85
2022/11/09 08:49:03;;;;;;;27.40;19.95;;;;;;;11.44;83.98;100793.37;1683941;83;21476;-90
2022/11/09 08:51:30;;;;;;;26.25;19.35;;;;;;;11.63;83.95;100789.39;1676977;83;21989;-85
2022/11/09 08:53:56;;;;;;;24.85;18.50;;;;;;;11.83;83.71;100793.77;1683507;83;21361;-85
2022/11/09 08:56:23;;;;;;;22.52;18.67;;;;;;;11.97;83.45;100790.55;1682698;83;21557;-86
2022/11/09 08:58:52;;;;;;;23.10;18.92;;;;;;;12.11;83.11;100790.84;1673421;83;21486;-86
2022/11/09 09:01:19;;;;;;;25.60;19.40;;;;;;;12.20;82.83;100789.27;1690722;82;21359;-85
2022/11/09 09:03:47;;;;;;;27.42;18.92;;;;;;;12.28;82.34;100795.12;1681162;83;21718;-86
2022/11/09 09:06:13;;;;;;;23.45;17.90;;;;;;;12.30;82.13;100800.00;1686620;83;21452;-86
2022/11/09 09:08:40;;;;;;;25.23;17.35;;;;;;;12.29;81.78;100800.41;1685082;83;21035;-86
2022/11/09 09:11:07;;;;;;;25.15;18.10;;;;;;;12.30;81.60;100798.67;1693361;83;21006;-85
2022/11/09 09:13:34;;;;;;;25.95;18.48;;;;;;;12.31;81.46;100800.44;1683739;83;20994;-85
2022/11/09 09:16:14;;;;;;;22.90;18.40;;;;;;;12.30;81.16;100794.28;1694591;83;22664;-85
2022/11/09 09:18:41;;;;;;;24.18;17.50;;;;;;;12.29;81.21;100792.48;1688757;83;21438;-86
2022/11/09 09:21:08;;;;;;;25.27;18.50;;;;;;;12.36;81.31;100796.14;1639972;85;21470;-85
2022/11/09 09:23:35;;;;;;;25.52;19.20;;;;;;;12.47;81.44;100790.63;1620150;86;21151;-85
2022/11/09 09:26:02;;;;;;;25.25;18.98;;;;;;;12.60;81.25;100780.73;1651777;85;21056;-85
2022/11/09 09:28:29;;;;;;;24.95;18.62;;;;;;;12.75;81.26;100778.78;1671147;83;21838;-85
2022/11/09 09:30:59;;;;;;;25.62;18.62;;;;;;;12.91;81.03;100784.31;1685000;83;20974;-86
2022/11/09 09:33:26;;;;;;;22.50;17.12;;;;;;;13.06;80.74;100792.91;1693712;83;21423;-86
2022/11/09 09:35:56;;;;;;;25.65;18.48;;;;;;;13.15;80.43;100783.36;1675189;83;21051;-85
2022/11/09 09:38:23;;;;;;;23.45;18.52;;;;;;;13.23;80.22;100787.03;1679849;82;21356;-85
2022/11/09 09:40:59;;;;;;;31.68;21.12;;;;;;;13.33;79.91;100794.69;1695023;83;21893;-86
2022/11/09 09:43:43;;;;;;;21.73;17.95;;;;;;;13.36;79.58;100789.45;1652325;84;21010;-86
2022/11/09 09:46:31;;;;;;;26.85;19.65;;;;;;;13.39;79.35;100789.48;1682515;83;21050;-86
2022/11/09 09:49:08;;;;;;;26.37;19.07;;;;;;;13.39;79.19;100795.20;1660136;84;21003;-86
2022/11/09 09:51:43;;;;;;;26.68;19.48;;;;;;;13.44;79.03;100793.94;1676545;84;21542;-85
2022/11/09 09:54:17;;;;;;;20.82;17.57;;;;;;;13.43;78.77;100799.67;1673520;83;21772;-86
2022/11/09 09:56:45;;;;;;;24.15;19.62;;;;;;;13.40;78.72;100796.56;1661500;84;21050;-85
2022/11/09 09:59:32;;;;;;;25.17;18.52;;;;;;;13.46;78.67;100805.42;1663257;84;21577;-85
2022/11/09 10:01:58;;;;;;;27.98;21.07;;;;;;;13.46;78.47;100798.81;1664446;84;21149;-85
2022/11/09 10:04:33;;;;;;;22.77;17.50;;;;;;;13.48;78.45;100795.78;1668981;83;21003;-85
2022/11/09 10:07:17;;;;;;;23.62;18.75;;;;;;;13.55;78.52;100797.20;1663525;84;23044;-85
2022/11/09 10:09:59;;;;;;;20.82;18.12;;;;;;;13.61;78.38;100801.25;1685572;83;20991;-85
2022/11/09 10:12:49;;;;;;;27.62;19.02;;;;;;;13.66;78.10;100791.16;1658699;84;21539;-85
2022/11/09 10:16:02;;;;;;;23.95;19.12;;;;;;;13.68;78.08;100791.62;1636356;86;21085;-86
2022/11/09 10:19:24;;;;;;;24.67;17.92;;;;;;;13.73;77.89;100784.64;1625572;86;21033;-85
2022/11/09 10:22:11;;;;;;;23.47;18.25;;;;;;;13.72;77.63;100789.91;1633415;85;22625;-85
2022/11/09 10:24:54;;;;;;;25.23;18.75;;;;;;;13.71;77.55;100783.73;1594275;85;20997;-86
2022/11/09 10:27:35;;;;;;;23.67;17.82;;;;;;;13.67;77.35;100746.22;1689208;84;21006;-84
2022/11/09 10:30:14;;;;;;;24.90;18.02;;;;;;;13.67;77.35;100746.22;1671432;84;21320;-86
2022/11/09 10:32:41;;;;;;;28.17;18.90;;;;;;;13.71;77.41;100753.76;1679451;84;21003;-86
2022/11/09 10:35:29;;;;;;;19.80;17.32;;;;;;;13.77;77.40;100756.47;1676445;82;22994;-86
2022/11/09 10:37:56;;;;;;;20.32;17.35;;;;;;;13.80;77.26;100752.10;1668647;84;20998;-86
2022/11/09 10:40:46;;;;;;;51.55;32.30;;;;;;;13.87;77.12;100762.75;1669665;81;21914;-85
2022/11/09 10:43:13;;;;;;;33.78;22.45;;;;;;;13.92;76.90;100765.90;1665912;81;21006;-85
2022/11/09 10:45:42;;;;;;;24.25;17.85;;;;;;;13.92;76.82;100761.93;1715525;81;21123;-91
2022/11/09 10:48:10;;;;;;;25.02;18.82;;;;;;;13.95;76.83;100769.03;1717936;83;21691;-91
2022/11/09 10:50:51;;;;;;;26.73;18.25;;;;;;;13.99;76.68;100768.20;1681903;83;21006;-90
2022/11/09 10:53:32;;;;;;;21.80;17.15;;;;;;;13.98;76.48;100775.67;1706585;81;20983;-91
2022/11/09 10:56:15;;;;;;;25.05;17.73;;;;;;;13.97;76.37;100776.55;1700470;83;21431;-91
2022/11/09 10:58:50;;;;;;;25.50;18.23;;;;;;;13.99;76.40;100777.45;1709016;83;21074;-91
2022/11/09 11:01:27;;;;;;;22.22;17.77;;;;;;;14.02;76.32;100776.18;1702480;82;22463;-91
2022/11/09 11:03:56;;;;;;;28.73;17.77;;;;;;;14.03;76.29;100767.80;1712417;81;21058;-91
2022/11/09 11:06:27;;;;;;;26.95;18.05;;;;;;;14.07;76.29;100760.34;1715304;83;21042;-91
2022/11/09 11:09:11;;;;;;;21.27;16.67;;;;;;;14.05;76.01;100757.67;1711880;83;21772;-91
2022/11/09 11:11:38;;;;;;;;;;;;;;;14.01;76.00;100750.57;1694915;83;21442;-86
2022/11/09 11:14:34;;;;;;;25.32;17.70;;;;;;;13.95;75.73;100764.62;1707804;83;22400;-85
2022/11/09 11:17:02;;;;;;;26.87;17.57;;;;;;;13.90;75.79;100765.44;1700754;81;21088;-85
2022/11/09 11:19:40;;;;;;;23.90;17.82;;;;;;;13.86;75.93;100774.22;1702544;83;21035;-84
2022/11/09 11:22:21;;;;;;;23.10;16.42;;;;;;;13.87;75.97;100783.50;1717692;81;21557;-85
2022/11/09 11:25:01;;;;;;;23.85;17.32;;;;;;;13.88;76.00;100772.03;1709741;83;21015;-86
2022/11/09 11:27:42;;;;;;;19.92;15.90;;;;;;;13.87;75.88;100768.95;1684272;83;21737;-86
2022/11/09 11:30:16;;;;;;;20.60;16.40;;;;;;;13.85;75.73;100771.11;1708814;81;21604;-86
2022/11/09 11:32:43;;;;;;;20.48;16.27;;;;;;;13.77;75.61;100769.25;1715800;81;21033;-85